Buoy 47557

sailwx.info

Track history (hours):
 
Tides and Currents Weather Stations Pressure Air Temp Water Temp Dewpoint Dewpoint Depression Visibility Wind Speed Wind Dir Waves Ship Positions

Drifting buoy 47557

Last reported at 2017-Aug-18 20:00 UTC. Time now 2017-Aug-18 23:35 UTC.
Position N 54°38' W 008°37'.

Barometer 1002.3 mb
Water temperature 12.6 ° C

Date/timePositionNaut miles runAvg speedWind from/ knotsBaromVisibWave heightAir tempDewpointWater temp
2017-Aug-18 20:00N 54°38' W 008°37'0 0.0 1002.3 12.6
2017-Aug-18 19:00N 54°38' W 008°37'0 0.0 1001.5 13.1
2017-Aug-18 18:00N 54°38' W 008°37'0 0.0 1000.6 14.1
2017-Aug-18 17:00N 54°38' W 008°37'0 0.0 999.3 14.9
2017-Aug-18 16:00N 54°38' W 008°37'0 0.0 998.3 15.0
2017-Aug-18 15:00N 54°38' W 008°37'0 0.0 997.6 16.3
2017-Aug-18 14:00N 54°38' W 008°37'0 0.0 997.0 17.0
2017-Aug-18 13:00N 54°38' W 008°37'0 0.0 996.4 15.7
2017-Aug-18 12:00N 54°38' W 008°37'0 0.0 996.0 13.5
2017-Aug-18 11:00N 54°38' W 008°37'0 0.0 995.8 12.8
2017-Aug-18 10:00N 54°38' W 008°37'0 0.0 995.9 12.6
2017-Aug-18 09:00N 54°38' W 008°37'0 0.0 995.9 11.8
2017-Aug-18 07:00N 54°38' W 008°37'0 0.0 995.4 11.1
2017-Aug-18 06:00N 54°38' W 008°37'0 0.0 995.2 10.8
2017-Aug-18 05:00N 54°38' W 008°37'0 0.0 995.2 11.0
2017-Aug-18 04:00N 54°38' W 008°37'0 0.0 995.1 11.1
2017-Aug-18 03:00N 54°38' W 008°37'0 0.0 995.1 11.3
2017-Aug-18 02:00N 54°38' W 008°37'0 0.0 995.2 11.4
2017-Aug-18 01:00N 54°38' W 008°37'0 0.0 995.3 11.7
2017-Aug-18 00:00N 54°38' W 008°37'0 0.0 995.3 11.9
2017-Aug-17 23:00N 54°38' W 008°37'0 0.0 995.1 12.1
2017-Aug-17 22:00N 54°38' W 008°37'0 0.0 994.7 12.2
2017-Aug-17 21:00N 54°38' W 008°37'0 0.0 994.0 13.1
2017-Aug-17 20:00N 54°38' W 008°37'0 0.0 992.9 14.2
2017-Aug-17 19:00N 54°38' W 008°37'1 0.7 993.2 14.8
2017-Aug-17 18:00N 54°38' W 008°38'1 0.9 1001.4 15.4
2017-Aug-17 17:00N 54°37' W 008°39'1 0.7 1001.5 15.6
2017-Aug-17 16:00N 54°37' W 008°38'1 1.4 1002.0 15.4
2017-Aug-17 15:00N 54°37' W 008°40'1 0.7 1002.4 15.9
2017-Aug-17 14:00N 54°37' W 008°39'0 0.0 1002.6 16.2
2017-Aug-17 13:00N 54°37' W 008°39'0 0.0 1003.2 16.1
2017-Aug-17 12:00N 54°37' W 008°39'0 0.0 1003.0 16.0
2017-Aug-17 10:00N 54°37' W 008°39'0 0.0 1003.2 15.9
2017-Aug-17 09:00N 54°37' W 008°39'0 0.0 1003.0 15.8
2017-Aug-17 08:00N 54°37' W 008°39'0 0.0 1002.9 15.8
2017-Aug-17 06:00N 54°37' W 008°39'0 0.0 1003.0 15.8
2017-Aug-17 05:00N 54°37' W 008°39'0 0.0 1002.8 15.8
2017-Aug-17 04:00N 54°37' W 008°39'0 0.0 1003.0 15.9
2017-Aug-17 03:00N 54°37' W 008°39'0 0.0 1003.3 15.9
2017-Aug-17 01:00N 54°37' W 008°39'0 0.0 1003.8 15.9
2017-Aug-17 00:00N 54°37' W 008°39'0 0.0 1004.0 15.9
2017-Aug-16 22:00N 54°37' W 008°39'0 0.0 1004.5 15.9
2017-Aug-16 21:00N 54°37' W 008°39'0 0.0 1004.4 15.9
2017-Aug-16 15:00N 54°37' W 008°39'0 0.0 1003.0 16.0
2017-Aug-16 14:00N 54°37' W 008°39'0 0.0 1003.5 15.9
2017-Aug-16 13:00N 54°37' W 008°39'0 0.0 1004.0 15.9
2017-Aug-16 12:00N 54°37' W 008°39'0 0.0 1004.6 15.8
2017-Aug-16 11:00N 54°37' W 008°39'0 0.0 1005.2 15.8
2017-Aug-16 09:00N 54°37' W 008°39'0 0.0 1006.5 15.8
2017-Aug-16 08:00N 54°37' W 008°39'0 0.0 1006.8 15.8
2017-Aug-16 07:00N 54°37' W 008°39'1 0.7 1007.3 15.7
2017-Aug-16 06:00N 54°37' W 008°38'1 0.6 1007.8 15.8
2017-Aug-16 04:00N 54°36' W 008°37'0 0.0 1009.8 15.9
2017-Aug-16 03:00N 54°36' W 008°37'1 0.3 1010.8 15.9
2017-Aug-16 01:00N 54°35' W 008°38'1 0.7 1012.5 15.9
2017-Aug-16 00:00N 54°35' W 008°38'0 0.3 1013.2 15.9
2017-Aug-15 23:00N 54°35' W 008°39'1 0.7 1013.7 15.9
2017-Aug-15 22:00N 54°34' W 008°40'0 0.0 1013.9 16.0
2017-Aug-15 21:00N 54°34' W 008°40'0 0.3 1014.2 16.0
2017-Aug-15 20:00N 54°34' W 008°40'0 0.2 1014.2 16.0
2017-Aug-15 18:00N 54°34' W 008°41'0 0.3 1014.3 16.1
2017-Aug-15 17:00N 54°34' W 008°41'1 0.6 1014.1 16.1
2017-Aug-15 16:00N 54°35' W 008°41'0 0.3 1014.2 16.0
2017-Aug-15 15:00N 54°35' W 008°42'0 0.3 1013.7 15.9
2017-Aug-15 14:00N 54°35' W 008°43'1 0.3 1013.5 15.9
2017-Aug-15 12:00N 54°35' W 008°44'0 0.3 1012.4 15.8
2017-Aug-15 11:00N 54°35' W 008°44'0 0.3 1011.9 15.7
2017-Aug-15 10:00N 54°35' W 008°45'0 0.3 1011.4 15.7
2017-Aug-15 09:00N 54°35' W 008°46'0 0.0 1010.8 15.7
2017-Aug-15 08:00N 54°35' W 008°46'0 0.3 1010.5 15.6
2017-Aug-15 07:00N 54°35' W 008°46'0 0.0 1010.1 15.6
2017-Aug-15 06:00N 54°35' W 008°46'0 0.0 1009.8 15.6
2017-Aug-15 05:00N 54°35' W 008°46'1 0.7 1009.5 15.6
2017-Aug-15 04:00N 54°35' W 008°47'0 0.0 1009.3 15.7
2017-Aug-15 03:00N 54°35' W 008°47'0 0.3 1009.2 15.7
2017-Aug-15 02:00N 54°35' W 008°47'0 0.0 1009.2 15.7
2017-Aug-15 01:00N 54°35' W 008°47'0 0.3 1009.2 15.7
2017-Aug-15 00:00N 54°35' W 008°48'0 0.0 1009.3 15.7
2017-Aug-14 23:00N 54°35' W 008°48'1 0.7 1009.2 15.8
2017-Aug-14 22:00N 54°35' W 008°49'0 0.0 1009.2 15.8
2017-Aug-14 21:00N 54°35' W 008°49'0 0.1 1009.1 15.8
2017-Aug-14 18:00N 54°35' W 008°49'0 0.2 1008.8 15.9
2017-Aug-14 16:00N 54°35' W 008°49'0 0.0 1009.2 15.8
2017-Aug-14 15:00N 54°35' W 008°49'1 0.6 1009.3 15.8
2017-Aug-14 14:00N 54°35' W 008°49'0 0.2 1009.3 15.7
2017-Aug-14 12:00N 54°35' W 008°48'1 0.7 1008.8 15.7
2017-Aug-14 11:00N 54°36' W 008°49'0 0.3 1008.1 15.6
2017-Aug-14 10:00N 54°36' W 008°49'0 0.3 1007.6 15.7
2017-Aug-14 09:00N 54°36' W 008°50'0 0.3 1007.1 15.6
2017-Aug-14 08:00N 54°36' W 008°50'0 0.3 1006.9 15.6
2017-Aug-14 07:00N 54°36' W 008°51'1 0.7 1006.8 15.6
2017-Aug-14 06:00N 54°35' W 008°52'1 0.4 1006.9 15.7
2017-Aug-14 03:00N 54°34' W 008°52'1 0.7 1008.8 15.7
2017-Aug-14 02:00N 54°34' W 008°51'0 0.3 1009.8 15.8
2017-Aug-14 01:00N 54°34' W 008°50'1 0.7 1010.8 15.8
2017-Aug-14 00:00N 54°33' W 008°50'0 0.3 1011.9 15.8
2017-Aug-13 23:00N 54°33' W 008°49'1 0.7 1012.6 15.9
2017-Aug-13 22:00N 54°32' W 008°49'1 0.6 1013.6 15.9
2017-Aug-13 21:00N 54°32' W 008°49'0 0.0 1014.3 15.9
2017-Aug-13 20:00N 54°32' W 008°49'0 0.0 1014.4 16.0
2017-Aug-13 19:00N 54°32' W 008°49'1 0.6 1015.3 16.0
2017-Aug-13 18:00N 54°31' W 008°49'0 0.0 1015.7 16.1
2017-Aug-13 17:00N 54°31' W 008°49'0 0.0 1016.6 16.1
2017-Aug-13 16:00N 54°31' W 008°49'0 0.0 1017.5 16.2
2017-Aug-13 15:00N 54°31' W 008°49'1 0.6 1018.2 16.1
2017-Aug-13 14:00N 54°31' W 008°49'0 0.3 1018.6 16.1
2017-Aug-13 13:00N 54°31' W 008°48'0 0.0 1019.0 16.0
2017-Aug-13 12:00N 54°31' W 008°48'1 0.3 1019.4 16.0
2017-Aug-13 10:00N 54°30' W 008°47'0 0.0 1019.9 15.9
2017-Aug-13 09:00N 54°30' W 008°47'0 0.0 1020.0 15.9
2017-Aug-13 08:00N 54°30' W 008°47'0 0.0 1020.1 15.8
2017-Aug-13 07:00N 54°30' W 008°47'0 0.3 1020.0 15.8
2017-Aug-13 06:00N 54°30' W 008°48'0 0.3 1020.0 15.8
2017-Aug-13 05:00N 54°30' W 008°49'0 0.0 1020.1 15.8
2017-Aug-13 04:00N 54°30' W 008°49'1 0.7 1020.5 15.8
2017-Aug-13 03:00N 54°29' W 008°49'0 0.0 1020.6 15.8
2017-Aug-13 02:00N 54°29' W 008°49'0 0.0 1020.7 15.9
2017-Aug-13 01:00N 54°29' W 008°49'0 0.0 1020.8 15.9
2017-Aug-13 00:00N 54°29' W 008°49'1 0.6 1020.9 15.9
2017-Aug-12 23:00N 54°29' W 008°49'0 0.0 1021.1 15.9
2017-Aug-12 22:00N 54°29' W 008°49'0 0.0 1021.1 15.9
2017-Aug-12 21:00N 54°29' W 008°49'0 0.3 1021.2 16.0
2017-Aug-12 20:00N 54°29' W 008°50'0 0.0 1020.9 16.0
2017-Aug-12 19:00N 54°29' W 008°50'0 0.3 1020.8 16.1
2017-Aug-12 18:00N 54°29' W 008°50'0 0.0 1020.6 16.1
2017-Aug-12 17:00N 54°29' W 008°50'0 0.3 1020.7 16.1
2017-Aug-12 16:00N 54°29' W 008°51'1 0.6 1020.6 16.0
2017-Aug-12 15:00N 54°29' W 008°51'0 0.0 1020.5 16.0
2017-Aug-12 14:00N 54°29' W 008°51'0 0.0 1020.1 15.9
2017-Aug-12 13:00N 54°29' W 008°51'0 0.0 1019.9 15.9
2017-Aug-12 12:00N 54°29' W 008°51'1 0.2 1019.4 15.8
2017-Aug-12 09:00N 54°29' W 008°50'0 0.0 1017.4 15.7
2017-Aug-12 08:00N 54°29' W 008°50'1 0.6 1016.6 15.7
2017-Aug-12 07:00N 54°30' W 008°50'0 0.0 1016.2 15.7
2017-Aug-12 06:00N 54°30' W 008°50'0 0.3 1015.5 15.7
2017-Aug-12 05:00N 54°30' W 008°50'1 0.6 1015.0 15.7
2017-Aug-12 04:00N 54°31' W 008°50'0 0.0 1014.5 15.7
2017-Aug-12 03:00N 54°31' W 008°50'1 0.3 1013.8 15.7
2017-Aug-12 01:00N 54°31' W 008°50'1 0.2 1013.3 15.8
2017-Aug-11 22:00N 54°31' W 008°50'0 0.0 1012.9 15.8
2017-Aug-11 21:00N 54°31' W 008°50'0 0.2 1012.7 15.8
2017-Aug-11 19:00N 54°31' W 008°50'0 0.3 1012.5 15.8
2017-Aug-11 18:00N 54°31' W 008°51'0 0.3 1012.4 15.8
2017-Aug-11 17:00N 54°31' W 008°52'0 0.3 1012.3 15.8
2017-Aug-11 16:00N 54°31' W 008°52'1 0.7 1012.2 15.8
2017-Aug-11 15:00N 54°31' W 008°53'0 0.0 1012.2 15.8
2017-Aug-11 14:00N 54°31' W 008°53'0 0.0 1012.1 15.8
2017-Aug-11 13:00N 54°31' W 008°53'0 0.0 1011.9 15.7
2017-Aug-11 12:00N 54°31' W 008°53'0 0.0 1011.7 15.6
2017-Aug-11 11:00N 54°31' W 008°53'0 0.3 1011.4 15.6
2017-Aug-11 10:00N 54°31' W 008°52'1 0.6 1011.0 15.6
2017-Aug-11 09:00N 54°32' W 008°52'0 0.0 1010.8 15.6
2017-Aug-11 08:00N 54°32' W 008°52'0 0.3 1010.9 15.6
2017-Aug-11 07:00N 54°32' W 008°53'1 0.7 1010.9 15.6
2017-Aug-11 06:00N 54°32' W 008°53'0 0.3 1011.0 15.6
2017-Aug-11 05:00N 54°32' W 008°54'0 0.3 1011.4 15.6
2017-Aug-11 04:00N 54°32' W 008°55'0 0.0 1012.2 15.6
2017-Aug-11 03:00N 54°32' W 008°55'1 0.7 1013.2 15.6
2017-Aug-11 02:00N 54°32' W 008°55'0 0.3 1014.0 15.6
2017-Aug-11 01:00N 54°32' W 008°55'0 0.0 1015.1 15.6
2017-Aug-11 00:00N 54°32' W 008°55'0 0.0 1016.2 15.7
2017-Aug-10 23:00N 54°32' W 008°55'1 0.6 1016.9 15.7
2017-Aug-10 22:00N 54°31' W 008°55'0 0.0 1017.8 15.7
2017-Aug-10 21:00N 54°31' W 008°55'0 0.0 1018.9 15.6
2017-Aug-10 20:00N 54°31' W 008°55'0 0.3 1019.6 15.7
2017-Aug-10 19:00N 54°31' W 008°55'0 0.3 1020.1 15.7
2017-Aug-10 18:00N 54°31' W 008°56'1 0.7 1020.9 15.7
2017-Aug-10 17:00N 54°31' W 008°57'1 0.7 1021.6 15.8
2017-Aug-10 16:00N 54°31' W 008°58'1 0.7 1022.5 15.8
2017-Aug-10 15:00N 54°31' W 008°59'0 0.3 1023.4 15.8
2017-Aug-10 14:00N 54°31' W 008°59'0 0.0 1024.1 15.8
2017-Aug-10 13:00N 54°31' W 008°59'0 0.3 1024.7 15.7
2017-Aug-10 12:00N 54°31' W 009°00'0 0.0 1025.4 15.7
2017-Aug-10 11:00N 54°31' W 009°00'0 0.3 1025.6 15.7
2017-Aug-10 10:00N 54°31' W 008°59'0 0.0 1025.7 15.6
2017-Aug-10 09:00N 54°31' W 008°59'1 0.6 1026.0 15.6
2017-Aug-10 08:00N 54°31' W 008°59'0 0.3 1026.9 15.6
2017-Aug-10 07:00N 54°31' W 009°00'0 0.3 1026.4 15.6
2017-Aug-10 06:00N 54°31' W 009°01'0 0.3 1026.7 15.6
2017-Aug-10 05:00N 54°31' W 009°01'0 0.3 1026.8 15.7
2017-Aug-10 04:00N 54°31' W 009°02'1 0.6 1027.4 15.7
2017-Aug-10 03:00N 54°32' W 009°02'0 0.3 1027.8 15.7
2017-Aug-10 02:00N 54°32' W 009°02'0 0.0 1028.1 15.7
2017-Aug-10 01:00N 54°32' W 009°02'0 0.0 1028.4 15.7
2017-Aug-10 00:00N 54°32' W 009°02'0 0.0 1028.8 15.7
2017-Aug-09 23:00N 54°32' W 009°02'1 0.6 1028.9 15.7
2017-Aug-09 22:00N 54°31' W 009°02'0 0.0 1028.7 15.7
2017-Aug-09 21:00N 54°31' W 009°02'0 0.0 1028.8 15.7
2017-Aug-09 20:00N 54°31' W 009°02'0 0.0 1028.2 15.7
2017-Aug-09 19:00N 54°31' W 009°02'0 0.0 1027.9 15.7
2017-Aug-09 18:00N 54°31' W 009°02'1 0.7 1027.9 15.7
2017-Aug-09 17:00N 54°32' W 009°03'0 0.3 1028.0 15.7
2017-Aug-09 16:00N 54°32' W 009°04'0 0.3 1028.0 15.7
2017-Aug-09 15:00N 54°32' W 009°04'0 0.0 1028.1 15.6
2017-Aug-09 14:00N 54°32' W 009°04'0 0.0 1027.9 15.6
2017-Aug-09 13:00N 54°32' W 009°04'1 0.6 1027.7 15.6
2017-Aug-09 12:00N 54°32' W 009°04'   1027.5 15.5
Track history (hours):
 
Tides and Currents Weather Stations Pressure Air Temp Water Temp Dewpoint Dewpoint Depression Visibility Wind Speed Wind Dir Waves Ship Positions

Drifting buoy 47557

Last reported at 2017-Aug-18 20:00 UTC. Time now 2017-Aug-18 23:35 UTC.
Position N 54°38' W 008°37'.

Barometer 1002.3 mb
Water temperature 12.6 ° C

Date/timePositionNaut miles runAvg speedWind from/ knotsBaromVisibWave heightAir tempDewpointWater temp
2017-Aug-18 20:00N 54°38' W 008°37'0 0.0 1002.3 12.6
2017-Aug-18 19:00N 54°38' W 008°37'0 0.0 1001.5 13.1
2017-Aug-18 18:00N 54°38' W 008°37'0 0.0 1000.6 14.1
2017-Aug-18 17:00N 54°38' W 008°37'0 0.0 999.3 14.9
2017-Aug-18 16:00N 54°38' W 008°37'0 0.0 998.3 15.0
2017-Aug-18 15:00N 54°38' W 008°37'0 0.0 997.6 16.3
2017-Aug-18 14:00N 54°38' W 008°37'0 0.0 997.0 17.0
2017-Aug-18 13:00N 54°38' W 008°37'0 0.0 996.4 15.7
2017-Aug-18 12:00N 54°38' W 008°37'0 0.0 996.0 13.5
2017-Aug-18 11:00N 54°38' W 008°37'0 0.0 995.8 12.8
2017-Aug-18 10:00N 54°38' W 008°37'0 0.0 995.9 12.6
2017-Aug-18 09:00N 54°38' W 008°37'0 0.0 995.9 11.8
2017-Aug-18 07:00N 54°38' W 008°37'0 0.0 995.4 11.1
2017-Aug-18 06:00N 54°38' W 008°37'0 0.0 995.2 10.8
2017-Aug-18 05:00N 54°38' W 008°37'0 0.0 995.2 11.0
2017-Aug-18 04:00N 54°38' W 008°37'0 0.0 995.1 11.1
2017-Aug-18 03:00N 54°38' W 008°37'0 0.0 995.1 11.3
2017-Aug-18 02:00N 54°38' W 008°37'0 0.0 995.2 11.4
2017-Aug-18 01:00N 54°38' W 008°37'0 0.0 995.3 11.7
2017-Aug-18 00:00N 54°38' W 008°37'0 0.0 995.3 11.9
2017-Aug-17 23:00N 54°38' W 008°37'0 0.0 995.1 12.1
2017-Aug-17 22:00N 54°38' W 008°37'0 0.0 994.7 12.2
2017-Aug-17 21:00N 54°38' W 008°37'0 0.0 994.0 13.1
2017-Aug-17 20:00N 54°38' W 008°37'0 0.0 992.9 14.2
2017-Aug-17 19:00N 54°38' W 008°37'1 0.7 993.2 14.8
2017-Aug-17 18:00N 54°38' W 008°38'1 0.9 1001.4 15.4
2017-Aug-17 17:00N 54°37' W 008°39'1 0.7 1001.5 15.6
2017-Aug-17 16:00N 54°37' W 008°38'1 1.4 1002.0 15.4
2017-Aug-17 15:00N 54°37' W 008°40'1 0.7 1002.4 15.9
2017-Aug-17 14:00N 54°37' W 008°39'0 0.0 1002.6 16.2
2017-Aug-17 13:00N 54°37' W 008°39'0 0.0 1003.2 16.1
2017-Aug-17 12:00N 54°37' W 008°39'0 0.0 1003.0 16.0
2017-Aug-17 10:00N 54°37' W 008°39'0 0.0 1003.2 15.9
2017-Aug-17 09:00N 54°37' W 008°39'0 0.0 1003.0 15.8
2017-Aug-17 08:00N 54°37' W 008°39'0 0.0 1002.9 15.8
2017-Aug-17 06:00N 54°37' W 008°39'0 0.0 1003.0 15.8
2017-Aug-17 05:00N 54°37' W 008°39'0 0.0 1002.8 15.8
2017-Aug-17 04:00N 54°37' W 008°39'0 0.0 1003.0 15.9
2017-Aug-17 03:00N 54°37' W 008°39'0 0.0 1003.3 15.9
2017-Aug-17 01:00N 54°37' W 008°39'0 0.0 1003.8 15.9
2017-Aug-17 00:00N 54°37' W 008°39'0 0.0 1004.0 15.9
2017-Aug-16 22:00N 54°37' W 008°39'0 0.0 1004.5 15.9
2017-Aug-16 21:00N 54°37' W 008°39'0 0.0 1004.4 15.9
2017-Aug-16 15:00N 54°37' W 008°39'0 0.0 1003.0 16.0
2017-Aug-16 14:00N 54°37' W 008°39'0 0.0 1003.5 15.9
2017-Aug-16 13:00N 54°37' W 008°39'0 0.0 1004.0 15.9
2017-Aug-16 12:00N 54°37' W 008°39'0 0.0 1004.6 15.8
2017-Aug-16 11:00N 54°37' W 008°39'0 0.0 1005.2 15.8
2017-Aug-16 09:00N 54°37' W 008°39'0 0.0 1006.5 15.8
2017-Aug-16 08:00N 54°37' W 008°39'0 0.0 1006.8 15.8
2017-Aug-16 07:00N 54°37' W 008°39'1 0.7 1007.3 15.7
2017-Aug-16 06:00N 54°37' W 008°38'1 0.6 1007.8 15.8
2017-Aug-16 04:00N 54°36' W 008°37'0 0.0 1009.8 15.9
2017-Aug-16 03:00N 54°36' W 008°37'1 0.3 1010.8 15.9
2017-Aug-16 01:00N 54°35' W 008°38'1 0.7 1012.5 15.9
2017-Aug-16 00:00N 54°35' W 008°38'0 0.3 1013.2 15.9
2017-Aug-15 23:00N 54°35' W 008°39'1 0.7 1013.7 15.9
2017-Aug-15 22:00N 54°34' W 008°40'0 0.0 1013.9 16.0
2017-Aug-15 21:00N 54°34' W 008°40'0 0.3 1014.2 16.0
2017-Aug-15 20:00N 54°34' W 008°40'0 0.2 1014.2 16.0
2017-Aug-15 18:00N 54°34' W 008°41'0 0.3 1014.3 16.1
2017-Aug-15 17:00N 54°34' W 008°41'1 0.6 1014.1 16.1
2017-Aug-15 16:00N 54°35' W 008°41'0 0.3 1014.2 16.0
2017-Aug-15 15:00N 54°35' W 008°42'0 0.3 1013.7 15.9
2017-Aug-15 14:00N 54°35' W 008°43'1 0.3 1013.5 15.9
2017-Aug-15 12:00N 54°35' W 008°44'0 0.3 1012.4 15.8
2017-Aug-15 11:00N 54°35' W 008°44'0 0.3 1011.9 15.7
2017-Aug-15 10:00N 54°35' W 008°45'0 0.3 1011.4 15.7
2017-Aug-15 09:00N 54°35' W 008°46'0 0.0 1010.8 15.7
2017-Aug-15 08:00N 54°35' W 008°46'0 0.3 1010.5 15.6
2017-Aug-15 07:00N 54°35' W 008°46'0 0.0 1010.1 15.6
2017-Aug-15 06:00N 54°35' W 008°46'0 0.0 1009.8 15.6
2017-Aug-15 05:00N 54°35' W 008°46'1 0.7 1009.5 15.6
2017-Aug-15 04:00N 54°35' W 008°47'0 0.0 1009.3 15.7
2017-Aug-15 03:00N 54°35' W 008°47'0 0.3 1009.2 15.7
2017-Aug-15 02:00N 54°35' W 008°47'0 0.0 1009.2 15.7
2017-Aug-15 01:00N 54°35' W 008°47'0 0.3 1009.2 15.7
2017-Aug-15 00:00N 54°35' W 008°48'0 0.0 1009.3 15.7
2017-Aug-14 23:00N 54°35' W 008°48'1 0.7 1009.2 15.8
2017-Aug-14 22:00N 54°35' W 008°49'0 0.0 1009.2 15.8
2017-Aug-14 21:00N 54°35' W 008°49'0 0.1 1009.1 15.8
2017-Aug-14 18:00N 54°35' W 008°49'0 0.2 1008.8 15.9
2017-Aug-14 16:00N 54°35' W 008°49'0 0.0 1009.2 15.8
2017-Aug-14 15:00N 54°35' W 008°49'1 0.6 1009.3 15.8
2017-Aug-14 14:00N 54°35' W 008°49'0 0.2 1009.3 15.7
2017-Aug-14 12:00N 54°35' W 008°48'1 0.7 1008.8 15.7
2017-Aug-14 11:00N 54°36' W 008°49'0 0.3 1008.1 15.6
2017-Aug-14 10:00N 54°36' W 008°49'0 0.3 1007.6 15.7
2017-Aug-14 09:00N 54°36' W 008°50'0 0.3 1007.1 15.6
2017-Aug-14 08:00N 54°36' W 008°50'0 0.3 1006.9 15.6
2017-Aug-14 07:00N 54°36' W 008°51'1 0.7 1006.8 15.6
2017-Aug-14 06:00N 54°35' W 008°52'1 0.4 1006.9 15.7
2017-Aug-14 03:00N 54°34' W 008°52'1 0.7 1008.8 15.7
2017-Aug-14 02:00N 54°34' W 008°51'0 0.3 1009.8 15.8
2017-Aug-14 01:00N 54°34' W 008°50'1 0.7 1010.8 15.8
2017-Aug-14 00:00N 54°33' W 008°50'0 0.3 1011.9 15.8
2017-Aug-13 23:00N 54°33' W 008°49'1 0.7 1012.6 15.9
2017-Aug-13 22:00N 54°32' W 008°49'1 0.6 1013.6 15.9
2017-Aug-13 21:00N 54°32' W 008°49'0 0.0 1014.3 15.9
2017-Aug-13 20:00N 54°32' W 008°49'0 0.0 1014.4 16.0
2017-Aug-13 19:00N 54°32' W 008°49'1 0.6 1015.3 16.0
2017-Aug-13 18:00N 54°31' W 008°49'0 0.0 1015.7 16.1
2017-Aug-13 17:00N 54°31' W 008°49'0 0.0 1016.6 16.1
2017-Aug-13 16:00N 54°31' W 008°49'0 0.0 1017.5 16.2
2017-Aug-13 15:00N 54°31' W 008°49'1 0.6 1018.2 16.1
2017-Aug-13 14:00N 54°31' W 008°49'0 0.3 1018.6 16.1
2017-Aug-13 13:00N 54°31' W 008°48'0 0.0 1019.0 16.0
2017-Aug-13 12:00N 54°31' W 008°48'1 0.3 1019.4 16.0
2017-Aug-13 10:00N 54°30' W 008°47'0 0.0 1019.9 15.9
2017-Aug-13 09:00N 54°30' W 008°47'0 0.0 1020.0 15.9
2017-Aug-13 08:00N 54°30' W 008°47'0 0.0 1020.1 15.8
2017-Aug-13 07:00N 54°30' W 008°47'0 0.3 1020.0 15.8
2017-Aug-13 06:00N 54°30' W 008°48'0 0.3 1020.0 15.8
2017-Aug-13 05:00N 54°30' W 008°49'0 0.0 1020.1 15.8
2017-Aug-13 04:00N 54°30' W 008°49'1 0.7 1020.5 15.8
2017-Aug-13 03:00N 54°29' W 008°49'0 0.0 1020.6 15.8
2017-Aug-13 02:00N 54°29' W 008°49'0 0.0 1020.7 15.9
2017-Aug-13 01:00N 54°29' W 008°49'0 0.0 1020.8 15.9
2017-Aug-13 00:00N 54°29' W 008°49'1 0.6 1020.9 15.9
2017-Aug-12 23:00N 54°29' W 008°49'0 0.0 1021.1 15.9
2017-Aug-12 22:00N 54°29' W 008°49'0 0.0 1021.1 15.9
2017-Aug-12 21:00N 54°29' W 008°49'0 0.3 1021.2 16.0
2017-Aug-12 20:00N 54°29' W 008°50'0 0.0 1020.9 16.0
2017-Aug-12 19:00N 54°29' W 008°50'0 0.3 1020.8 16.1
2017-Aug-12 18:00N 54°29' W 008°50'0 0.0 1020.6 16.1
2017-Aug-12 17:00N 54°29' W 008°50'0 0.3 1020.7 16.1
2017-Aug-12 16:00N 54°29' W 008°51'1 0.6 1020.6 16.0
2017-Aug-12 15:00N 54°29' W 008°51'0 0.0 1020.5 16.0
2017-Aug-12 14:00N 54°29' W 008°51'0 0.0 1020.1 15.9
2017-Aug-12 13:00N 54°29' W 008°51'0 0.0 1019.9 15.9
2017-Aug-12 12:00N 54°29' W 008°51'1 0.2 1019.4 15.8
2017-Aug-12 09:00N 54°29' W 008°50'0 0.0 1017.4 15.7
2017-Aug-12 08:00N 54°29' W 008°50'1 0.6 1016.6 15.7
2017-Aug-12 07:00N 54°30' W 008°50'0 0.0 1016.2 15.7
2017-Aug-12 06:00N 54°30' W 008°50'0 0.3 1015.5 15.7
2017-Aug-12 05:00N 54°30' W 008°50'1 0.6 1015.0 15.7
2017-Aug-12 04:00N 54°31' W 008°50'0 0.0 1014.5 15.7
2017-Aug-12 03:00N 54°31' W 008°50'1 0.3 1013.8 15.7
2017-Aug-12 01:00N 54°31' W 008°50'1 0.2 1013.3 15.8
2017-Aug-11 22:00N 54°31' W 008°50'0 0.0 1012.9 15.8
2017-Aug-11 21:00N 54°31' W 008°50'0 0.2 1012.7 15.8
2017-Aug-11 19:00N 54°31' W 008°50'0 0.3 1012.5 15.8
2017-Aug-11 18:00N 54°31' W 008°51'0 0.3 1012.4 15.8
2017-Aug-11 17:00N 54°31' W 008°52'0 0.3 1012.3 15.8
2017-Aug-11 16:00N 54°31' W 008°52'1 0.7 1012.2 15.8
2017-Aug-11 15:00N 54°31' W 008°53'0 0.0 1012.2 15.8
2017-Aug-11 14:00N 54°31' W 008°53'0 0.0 1012.1 15.8
2017-Aug-11 13:00N 54°31' W 008°53'0 0.0 1011.9 15.7
2017-Aug-11 12:00N 54°31' W 008°53'0 0.0 1011.7 15.6
2017-Aug-11 11:00N 54°31' W 008°53'0 0.3 1011.4 15.6
2017-Aug-11 10:00N 54°31' W 008°52'1 0.6 1011.0 15.6
2017-Aug-11 09:00N 54°32' W 008°52'0 0.0 1010.8 15.6
2017-Aug-11 08:00N 54°32' W 008°52'0 0.3 1010.9 15.6
2017-Aug-11 07:00N 54°32' W 008°53'1 0.7 1010.9 15.6
2017-Aug-11 06:00N 54°32' W 008°53'0 0.3 1011.0 15.6
2017-Aug-11 05:00N 54°32' W 008°54'0 0.3 1011.4 15.6
2017-Aug-11 04:00N 54°32' W 008°55'0 0.0 1012.2 15.6
2017-Aug-11 03:00N 54°32' W 008°55'1 0.7 1013.2 15.6
2017-Aug-11 02:00N 54°32' W 008°55'0 0.3 1014.0 15.6
2017-Aug-11 01:00N 54°32' W 008°55'0 0.0 1015.1 15.6
2017-Aug-11 00:00N 54°32' W 008°55'0 0.0 1016.2 15.7
2017-Aug-10 23:00N 54°32' W 008°55'1 0.6 1016.9 15.7
2017-Aug-10 22:00N 54°31' W 008°55'0 0.0 1017.8 15.7
2017-Aug-10 21:00N 54°31' W 008°55'0 0.0 1018.9 15.6
2017-Aug-10 20:00N 54°31' W 008°55'0 0.3 1019.6 15.7
2017-Aug-10 19:00N 54°31' W 008°55'0 0.3 1020.1 15.7
2017-Aug-10 18:00N 54°31' W 008°56'1 0.7 1020.9 15.7
2017-Aug-10 17:00N 54°31' W 008°57'1 0.7 1021.6 15.8
2017-Aug-10 16:00N 54°31' W 008°58'1 0.7 1022.5 15.8
2017-Aug-10 15:00N 54°31' W 008°59'0 0.3 1023.4 15.8
2017-Aug-10 14:00N 54°31' W 008°59'0 0.0 1024.1 15.8
2017-Aug-10 13:00N 54°31' W 008°59'0 0.3 1024.7 15.7
2017-Aug-10 12:00N 54°31' W 009°00'0 0.0 1025.4 15.7
2017-Aug-10 11:00N 54°31' W 009°00'0 0.3 1025.6 15.7
2017-Aug-10 10:00N 54°31' W 008°59'0 0.0 1025.7 15.6
2017-Aug-10 09:00N 54°31' W 008°59'1 0.6 1026.0 15.6
2017-Aug-10 08:00N 54°31' W 008°59'0 0.3 1026.9 15.6
2017-Aug-10 07:00N 54°31' W 009°00'0 0.3 1026.4 15.6
2017-Aug-10 06:00N 54°31' W 009°01'0 0.3 1026.7 15.6
2017-Aug-10 05:00N 54°31' W 009°01'0 0.3 1026.8 15.7
2017-Aug-10 04:00N 54°31' W 009°02'1 0.6 1027.4 15.7
2017-Aug-10 03:00N 54°32' W 009°02'0 0.3 1027.8 15.7
2017-Aug-10 02:00N 54°32' W 009°02'0 0.0 1028.1 15.7
2017-Aug-10 01:00N 54°32' W 009°02'0 0.0 1028.4 15.7
2017-Aug-10 00:00N 54°32' W 009°02'0 0.0 1028.8 15.7
2017-Aug-09 23:00N 54°32' W 009°02'1 0.6 1028.9 15.7
2017-Aug-09 22:00N 54°31' W 009°02'0 0.0 1028.7 15.7
2017-Aug-09 21:00N 54°31' W 009°02'0 0.0 1028.8 15.7
2017-Aug-09 20:00N 54°31' W 009°02'0 0.0 1028.2 15.7
2017-Aug-09 19:00N 54°31' W 009°02'0 0.0 1027.9 15.7
2017-Aug-09 18:00N 54°31' W 009°02'1 0.7 1027.9 15.7
2017-Aug-09 17:00N 54°32' W 009°03'0 0.3 1028.0 15.7
2017-Aug-09 16:00N 54°32' W 009°04'0 0.3 1028.0 15.7
2017-Aug-09 15:00N 54°32' W 009°04'0 0.0 1028.1 15.6
2017-Aug-09 14:00N 54°32' W 009°04'0 0.0 1027.9 15.6
2017-Aug-09 13:00N 54°32' W 009°04'1 0.6 1027.7 15.6
2017-Aug-09 12:00N 54°32' W 009°04'   1027.5 15.5

Dump ship's entire track history